Time;durP1;ratioP1;P1;durP2;ratioP2;P2;SDS_P1;SDS_P2;PMS_P1;PMS_P2;Temp;Humidity;BMP_temperature;BMP_pressure;BME280_temperature;BME280_humidity;BME280_pressure;Samples;Min_cycle;Max_cycle;Signal;HPM_P1;HPM_P2
2023/03/24 00:00:49;;;;;;;9.40;8.40;;;;;;;;;;6238124;28;20278;-65
2023/03/24 00:03:51;;;;;;;10.50;8.17;;;;;;;;;;6255743;28;20227;-65
2023/03/24 00:06:52;;;;;;;11.27;8.80;;;;;;;;;;6243073;28;20207;-64
2023/03/24 00:09:53;;;;;;;8.47;7.40;;;;;;;;;;6229338;28;20198;-64
2023/03/24 00:12:55;;;;;;;9.23;8.10;;;;;;;;;;6265822;28;20198;-65
2023/03/24 00:15:56;;;;;;;9.97;9.03;;;;;;;;;;6233138;28;20191;-65
2023/03/24 00:18:57;;;;;;;10.67;8.73;;;;;;;;;;6234166;28;20281;-64
2023/03/24 00:21:59;;;;;;;9.17;8.13;;;;;;;;;;6262231;28;20234;-65
2023/03/24 00:25:03;;;;;;;9.60;8.70;;;;;;;;;;6246472;28;20195;-65
2023/03/24 00:28:05;;;;;;;10.70;8.30;;;;;;;;;;6250422;28;20218;-65
2023/03/24 00:31:07;;;;;;;9.77;7.80;;;;;;;;;;6238869;28;20231;-64
2023/03/24 00:34:09;;;;;;;8.87;7.97;;;;;;;;;;6266829;28;20277;-64
2023/03/24 00:37:10;;;;;;;9.70;8.43;;;;;;;;;;6248479;28;20200;-64
2023/03/24 00:40:15;;;;;;;9.33;8.43;;;;;;;;;;6265010;28;20194;-64
2023/03/24 00:43:17;;;;;;;8.73;7.83;;;;;;;;;;6241403;28;20191;-65
2023/03/24 00:46:27;;;;;;;10.13;8.83;;;;;;;;;;6242931;28;20293;-65
2023/03/24 00:49:41;;;;;;;12.50;9.03;;;;;;;;;;6248918;28;20202;-65
2023/03/24 00:52:46;;;;;;;11.60;8.90;;;;;;;;;;6249979;28;20193;-65
2023/03/24 00:55:48;;;;;;;11.77;9.03;;;;;;;;;;6247672;28;20191;-65
2023/03/24 00:58:49;;;;;;;11.87;8.97;;;;;;;;;;6248915;28;20239;-65
2023/03/24 01:01:51;;;;;;;10.03;8.67;;;;;;;;;;6220789;28;20199;-65
2023/03/24 01:04:53;;;;;;;9.17;8.27;;;;;;;;;;6265163;28;20202;-65
2023/03/24 01:08:01;;;;;;;10.13;8.50;;;;;;;;;;6254657;28;20219;-65
2023/03/24 01:11:03;;;;;;;9.60;8.50;;;;;;;;;;6245407;28;20188;-65
2023/03/24 01:14:04;;;;;;;9.73;8.73;;;;;;;;;;6259528;28;20190;-65
2023/03/24 01:17:06;;;;;;;10.77;9.37;;;;;;;;;;6228495;28;20197;-64
2023/03/24 01:20:10;;;;;;;10.80;9.13;;;;;;;;;;6215320;28;20199;-65
2023/03/24 01:23:21;;;;;;;11.60;8.27;;;;;;;;;;6238643;28;20204;-65
2023/03/24 01:26:22;;;;;;;12.87;9.10;;;;;;;;;;6257580;28;20214;-65
2023/03/24 01:29:24;;;;;;;10.60;8.50;;;;;;;;;;6242062;28;20187;-64
2023/03/24 01:32:25;;;;;;;10.97;9.33;;;;;;;;;;6241501;28;20284;-65
2023/03/24 01:35:26;;;;;;;11.10;9.00;;;;;;;;;;6230474;28;20277;-65
2023/03/24 01:38:28;;;;;;;11.60;9.40;;;;;;;;;;6246249;28;20195;-65
2023/03/24 01:41:33;;;;;;;14.00;9.17;;;;;;;;;;6249655;28;20205;-64
2023/03/24 01:44:37;;;;;;;10.33;8.90;;;;;;;;;;6246451;28;20206;-64
2023/03/24 01:47:38;;;;;;;11.17;9.50;;;;;;;;;;6244062;28;20215;-65
2023/03/24 01:50:40;;;;;;;10.63;9.53;;;;;;;;;;6253596;28;20189;-65
2023/03/24 01:53:50;;;;;;;11.63;9.63;;;;;;;;;;6253075;28;20198;-65
2023/03/24 01:56:54;;;;;;;11.50;9.93;;;;;;;;;;6256698;28;20206;-65
2023/03/24 01:59:56;;;;;;;10.63;9.63;;;;;;;;;;6239846;28;20359;-65
2023/03/24 02:03:05;;;;;;;10.10;9.13;;;;;;;;;;6228880;28;20201;-64
2023/03/24 02:06:07;;;;;;;10.47;9.47;;;;;;;;;;6243912;28;20217;-64
2023/03/24 02:09:09;;;;;;;11.47;10.27;;;;;;;;;;6244111;28;20197;-64
2023/03/24 02:12:10;;;;;;;10.93;9.27;;;;;;;;;;6230897;28;20191;-64
2023/03/24 02:15:12;;;;;;;9.77;8.87;;;;;;;;;;6254512;28;20210;-64
2023/03/24 02:18:46;;;;;;;10.80;9.20;;;;;;;;;;6262798;28;20197;-64
2023/03/24 02:21:47;;;;;;;9.97;8.97;;;;;;;;;;6237658;28;20206;-65
2023/03/24 02:25:03;;;;;;;10.47;9.30;;;;;;;;;;6239613;28;20273;-65
2023/03/24 02:28:19;;;;;;;11.23;10.23;;;;;;;;;;6250004;28;20211;-65
2023/03/24 02:31:27;;;;;;;11.50;10.37;;;;;;;;;;6247804;28;20242;-65
2023/03/24 02:34:29;;;;;;;12.07;8.97;;;;;;;;;;6240487;28;20208;-65
2023/03/24 02:37:50;;;;;;;11.00;9.80;;;;;;;;;;6247472;28;20252;-65
2023/03/24 02:41:09;;;;;;;11.90;9.30;;;;;;;;;;6262337;28;20190;-65
2023/03/24 02:44:33;;;;;;;13.47;9.73;;;;;;;;;;6260578;28;20285;-65
2023/03/24 02:47:43;;;;;;;11.10;9.67;;;;;;;;;;6242841;28;20306;-65
2023/03/24 02:51:02;;;;;;;11.60;9.80;;;;;;;;;;6248112;28;20183;-65
2023/03/24 02:54:23;;;;;;;13.67;9.57;;;;;;;;;;6246651;28;20244;-65
2023/03/24 02:57:24;;;;;;;13.33;9.50;;;;;;;;;;6245821;28;20226;-65
2023/03/24 03:00:31;;;;;;;11.47;9.50;;;;;;;;;;6247324;28;20218;-65
2023/03/24 03:03:37;;;;;;;13.73;10.60;;;;;;;;;;6250247;28;20191;-65
2023/03/24 03:06:39;;;;;;;13.00;10.03;;;;;;;;;;6238953;28;20207;-65
2023/03/24 03:09:41;;;;;;;13.80;10.07;;;;;;;;;;6249546;28;20195;-65
2023/03/24 03:12:45;;;;;;;13.57;10.17;;;;;;;;;;6247796;28;20182;-64
2023/03/24 03:15:48;;;;;;;13.83;10.23;;;;;;;;;;6238630;28;20187;-64
2023/03/24 03:18:51;;;;;;;10.10;9.10;;;;;;;;;;6236106;28;20214;-64
2023/03/24 03:21:53;;;;;;;10.70;9.60;;;;;;;;;;6246808;28;20214;-65
2023/03/24 03:24:55;;;;;;;13.03;9.33;;;;;;;;;;6241377;28;20221;-65
2023/03/24 03:27:59;;;;;;;10.30;9.30;;;;;;;;;;6245649;28;20302;-65
2023/03/24 03:31:04;;;;;;;11.47;10.27;;;;;;;;;;6251999;28;20237;-65
2023/03/24 03:34:38;;;;;;;10.57;9.47;;;;;;;;;;6251869;28;20278;-65
2023/03/24 03:37:48;;;;;;;12.20;10.20;;;;;;;;;;6222097;28;20239;-64
2023/03/24 03:40:49;;;;;;;11.07;9.53;;;;;;;;;;6248124;28;20187;-65
2023/03/24 03:43:51;;;;;;;13.60;11.03;;;;;;;;;;6259683;28;20273;-65
2023/03/24 03:46:52;;;;;;;11.03;10.03;;;;;;;;;;6247269;28;20301;-64
2023/03/24 03:49:53;;;;;;;10.87;9.77;;;;;;;;;;6233910;28;20190;-64
2023/03/24 03:52:56;;;;;;;12.07;9.80;;;;;;;;;;6233480;28;20217;-65
2023/03/24 03:55:57;;;;;;;13.20;10.53;;;;;;;;;;6235318;28;20191;-65
2023/03/24 03:58:58;;;;;;;11.93;10.27;;;;;;;;;;6242611;28;20194;-64
2023/03/24 04:02:05;;;;;;;10.37;9.37;;;;;;;;;;6242316;28;20186;-64
2023/03/24 04:05:09;;;;;;;11.80;10.60;;;;;;;;;;6247764;28;20191;-64
2023/03/24 04:08:13;;;;;;;11.97;10.30;;;;;;;;;;6254275;28;20210;-64
2023/03/24 04:11:25;;;;;;;11.83;10.43;;;;;;;;;;6241737;28;20179;-65
2023/03/24 04:14:41;;;;;;;11.80;9.40;;;;;;;;;;6255823;28;20187;-65
2023/03/24 04:17:45;;;;;;;12.07;10.87;;;;;;;;;;6246097;28;20222;-64
2023/03/24 04:20:49;;;;;;;11.03;9.87;;;;;;;;;;6255288;28;20209;-64
2023/03/24 04:24:12;;;;;;;14.67;10.07;;;;;;;;;;6247786;28;20209;-64
2023/03/24 04:27:27;;;;;;;10.83;9.53;;;;;;;;;;6232865;28;20203;-65
2023/03/24 04:30:31;;;;;;;15.30;10.77;;;;;;;;;;6243183;28;20231;-65
2023/03/24 04:33:50;;;;;;;11.57;10.33;;;;;;;;;;6255366;28;20198;-65
2023/03/24 04:36:53;;;;;;;14.20;9.73;;;;;;;;;;6228307;28;20195;-64
2023/03/24 04:39:57;;;;;;;10.70;9.60;;;;;;;;;;6256125;28;20206;-64
2023/03/24 04:43:00;;;;;;;10.87;9.77;;;;;;;;;;6243293;28;20198;-65
2023/03/24 04:46:02;;;;;;;10.40;9.07;;;;;;;;;;6241632;28;20198;-65
2023/03/24 04:49:04;;;;;;;13.03;10.00;;;;;;;;;;6239118;28;20191;-64
2023/03/24 04:52:06;;;;;;;11.10;9.90;;;;;;;;;;6246396;28;20182;-65
2023/03/24 04:55:26;;;;;;;10.93;9.87;;;;;;;;;;6232448;28;20203;-65
2023/03/24 04:58:28;;;;;;;12.93;11.43;;;;;;;;;;6238505;28;20202;-65
2023/03/24 05:01:29;;;;;;;11.63;10.43;;;;;;;;;;6233759;28;20228;-65
2023/03/24 05:04:30;;;;;;;11.97;10.57;;;;;;;;;;6265500;28;20196;-66
2023/03/24 05:07:31;;;;;;;11.80;10.27;;;;;;;;;;6225304;28;20226;-68
2023/03/24 05:10:32;;;;;;;11.70;10.50;;;;;;;;;;6265105;28;20214;-67
2023/03/24 05:13:33;;;;;;;12.50;10.97;;;;;;;;;;6227481;28;20281;-68
2023/03/24 05:16:35;;;;;;;13.73;11.90;;;;;;;;;;6248143;28;20198;-67
2023/03/24 05:19:36;;;;;;;14.13;12.50;;;;;;;;;;6244874;28;20292;-67
2023/03/24 05:22:38;;;;;;;14.10;10.83;;;;;;;;;;6225539;28;20191;-64
2023/03/24 05:25:39;;;;;;;13.83;10.70;;;;;;;;;;6226642;28;20244;-66
2023/03/24 05:28:40;;;;;;;11.37;9.83;;;;;;;;;;6264365;28;20214;-66
2023/03/24 05:31:41;;;;;;;12.40;11.03;;;;;;;;;;6262948;28;20249;-66
2023/03/24 05:34:42;;;;;;;14.13;11.07;;;;;;;;;;6225271;28;20214;-66
2023/03/24 05:37:43;;;;;;;13.73;10.97;;;;;;;;;;6243236;28;20199;-67
2023/03/24 05:40:44;;;;;;;14.43;10.50;;;;;;;;;;6244861;28;20278;-67
2023/03/24 05:43:45;;;;;;;12.37;10.47;;;;;;;;;;6256629;28;20296;-67
2023/03/24 05:46:46;;;;;;;12.87;10.77;;;;;;;;;;6247675;28;20298;-67
2023/03/24 05:49:49;;;;;;;13.73;10.57;;;;;;;;;;6240061;28;20257;-67
2023/03/24 05:52:51;;;;;;;12.10;9.97;;;;;;;;;;6248005;28;20542;-67
2023/03/24 05:55:52;;;;;;;12.07;10.87;;;;;;;;;;6226265;28;20191;-67
2023/03/24 05:58:54;;;;;;;12.90;10.80;;;;;;;;;;6255619;28;20186;-67
2023/03/24 06:01:57;;;;;;;20.77;11.57;;;;;;;;;;6228753;28;20233;-67
2023/03/24 06:04:58;;;;;;;13.57;11.23;;;;;;;;;;6262856;28;20190;-67
2023/03/24 06:08:00;;;;;;;13.20;10.23;;;;;;;;;;6228291;28;20217;-67
2023/03/24 06:11:02;;;;;;;13.53;10.07;;;;;;;;;;6234357;28;20198;-67
2023/03/24 06:14:03;;;;;;;12.33;11.03;;;;;;;;;;6245709;28;20218;-67
2023/03/24 06:17:04;;;;;;;12.20;10.63;;;;;;;;;;6230520;28;20244;-67
2023/03/24 06:20:12;;;;;;;14.67;11.00;;;;;;;;;;6247756;28;20375;-67
2023/03/24 06:23:14;;;;;;;13.50;10.70;;;;;;;;;;6256312;28;20199;-67
2023/03/24 06:26:15;;;;;;;14.57;11.10;;;;;;;;;;6226329;28;20210;-66
2023/03/24 06:29:16;;;;;;;11.23;10.07;;;;;;;;;;6228795;28;20293;-66
2023/03/24 06:32:18;;;;;;;13.73;11.00;;;;;;;;;;6239849;28;20303;-66
2023/03/24 06:35:20;;;;;;;13.67;10.70;;;;;;;;;;6234397;28;20192;-66
2023/03/24 06:38:21;;;;;;;14.73;10.27;;;;;;;;;;6256726;28;20202;-66
2023/03/24 06:41:22;;;;;;;13.17;11.10;;;;;;;;;;6224495;28;20329;-66
2023/03/24 06:44:24;;;;;;;12.70;10.07;;;;;;;;;;6242061;28;20202;-66
2023/03/24 06:47:25;;;;;;;14.00;11.50;;;;;;;;;;6231998;28;20218;-66
2023/03/24 06:50:31;;;;;;;14.93;11.37;;;;;;;;;;6261503;28;20541;-66
2023/03/24 06:53:32;;;;;;;12.07;10.53;;;;;;;;;;6256508;28;20183;-66
2023/03/24 06:56:33;;;;;;;13.53;10.13;;;;;;;;;;6244875;28;20217;-66
2023/03/24 06:59:34;;;;;;;13.73;10.70;;;;;;;;;;6231237;28;20194;-66
2023/03/24 07:02:36;;;;;;;13.13;10.17;;;;;;;;;;6253597;28;20251;-66
2023/03/24 07:05:40;;;;;;;11.30;9.60;;;;;;;;;;6238166;28;20222;-66
2023/03/24 07:08:41;;;;;;;12.00;10.53;;;;;;;;;;6246323;28;20221;-65
2023/03/24 07:11:42;;;;;;;11.77;10.30;;;;;;;;;;6230361;28;20186;-66
2023/03/24 07:14:44;;;;;;;16.10;10.67;;;;;;;;;;6254531;28;20222;-65
2023/03/24 07:17:45;;;;;;;11.60;9.70;;;;;;;;;;6265209;28;20206;-65
2023/03/24 07:20:46;;;;;;;11.80;10.03;;;;;;;;;;6247394;28;20205;-65
2023/03/24 07:23:47;;;;;;;13.30;9.77;;;;;;;;;;6267691;28;20220;-65
2023/03/24 07:26:48;;;;;;;12.80;9.57;;;;;;;;;;6251844;28;20221;-65
2023/03/24 07:29:49;;;;;;;16.77;10.40;;;;;;;;;;6227623;28;20195;-65
2023/03/24 07:32:50;;;;;;;11.40;9.50;;;;;;;;;;6264946;28;20234;-65
2023/03/24 07:35:56;;;;;;;10.93;9.77;;;;;;;;;;6260955;28;20191;-65
2023/03/24 07:38:57;;;;;;;10.50;9.27;;;;;;;;;;6242368;28;20211;-65
2023/03/24 07:41:58;;;;;;;13.60;10.00;;;;;;;;;;6242537;28;20267;-65
2023/03/24 07:44:59;;;;;;;12.27;10.20;;;;;;;;;;6226010;28;20225;-65
2023/03/24 07:48:03;;;;;;;14.47;9.63;;;;;;;;;;6248948;28;20218;-65
2023/03/24 07:51:04;;;;;;;16.37;10.27;;;;;;;;;;6230733;28;20195;-65
2023/03/24 07:54:05;;;;;;;14.73;10.40;;;;;;;;;;6249091;28;20178;-65
2023/03/24 07:57:06;;;;;;;10.57;9.47;;;;;;;;;;6245841;28;20191;-65
2023/03/24 08:00:16;;;;;;;14.43;10.53;;;;;;;;;;6225298;28;20298;-65
2023/03/24 08:03:17;;;;;;;12.13;10.20;;;;;;;;;;6250200;28;20195;-65
2023/03/24 08:06:19;;;;;;;18.07;10.77;;;;;;;;;;6248921;28;20226;-65
2023/03/24 08:09:22;;;;;;;12.80;9.97;;;;;;;;;;6249294;28;20204;-65
2023/03/24 08:12:24;;;;;;;14.50;10.27;;;;;;;;;;6245002;28;20194;-65
2023/03/24 08:15:26;;;;;;;12.67;11.13;;;;;;;;;;6279603;28;20195;-65
2023/03/24 08:18:27;;;;;;;15.33;10.97;;;;;;;;;;6242732;28;20201;-65
2023/03/24 08:21:28;;;;;;;13.50;9.80;;;;;;;;;;6225224;28;20203;-65
2023/03/24 08:24:29;;;;;;;15.60;10.13;;;;;;;;;;6212472;28;20194;-66
2023/03/24 08:27:30;;;;;;;12.37;9.77;;;;;;;;;;6257749;28;20211;-65
2023/03/24 08:30:31;;;;;;;12.67;10.57;;;;;;;;;;6223765;28;20233;-65
2023/03/24 08:33:32;;;;;;;13.20;9.50;;;;;;;;;;6223793;28;20201;-65
2023/03/24 08:36:33;;;;;;;11.87;9.60;;;;;;;;;;6232452;28;20202;-66
2023/03/24 08:39:34;;;;;;;12.47;9.80;;;;;;;;;;6225366;28;20196;-66
2023/03/24 08:42:35;;;;;;;12.37;9.50;;;;;;;;;;6228213;28;20207;-66
2023/03/24 08:45:37;;;;;;;12.70;9.43;;;;;;;;;;6264174;28;20214;-66
2023/03/24 08:48:39;;;;;;;14.30;9.40;;;;;;;;;;6248230;28;20218;-66
2023/03/24 08:51:41;;;;;;;11.33;9.17;;;;;;;;;;6242698;28;20206;-66
2023/03/24 08:54:42;;;;;;;10.10;9.07;;;;;;;;;;6233314;28;20194;-66
2023/03/24 08:57:43;;;;;;;14.53;9.23;;;;;;;;;;6230467;28;20195;-66
2023/03/24 09:00:45;;;;;;;13.40;8.87;;;;;;;;;;6246975;28;20198;-66
2023/03/24 09:03:46;;;;;;;10.83;8.07;;;;;;;;;;6237312;28;20192;-66
2023/03/24 09:06:48;;;;;;;12.60;9.17;;;;;;;;;;6229072;28;20277;-66
2023/03/24 09:09:49;;;;;;;12.73;8.93;;;;;;;;;;6254132;28;20262;-65
2023/03/24 09:12:50;;;;;;;11.30;9.07;;;;;;;;;;6232194;28;20280;-65
2023/03/24 09:15:53;;;;;;;9.87;8.87;;;;;;;;;;6230276;28;20277;-64
2023/03/24 09:18:54;;;;;;;11.13;8.37;;;;;;;;;;6237661;28;20235;-65
2023/03/24 09:21:55;;;;;;;13.93;8.50;;;;;;;;;;6260342;28;20273;-65
2023/03/24 09:24:56;;;;;;;10.60;8.53;;;;;;;;;;6222622;28;20205;-65
2023/03/24 09:27:57;;;;;;;12.33;8.53;;;;;;;;;;6221194;28;20226;-65
2023/03/24 09:30:59;;;;;;;11.00;8.47;;;;;;;;;;6236176;28;20249;-65
2023/03/24 09:34:02;;;;;;;12.90;8.63;;;;;;;;;;6227344;28;20226;-65
2023/03/24 09:37:03;;;;;;;9.60;8.60;;;;;;;;;;6246078;28;20554;-65
2023/03/24 09:40:06;;;;;;;14.03;9.23;;;;;;;;;;6264315;28;20188;-65
2023/03/24 09:43:12;;;;;;;10.67;8.63;;;;;;;;;;6261949;28;20206;-65
2023/03/24 09:46:33;;;;;;;9.83;8.57;;;;;;;;;;6246146;28;20211;-65
2023/03/24 09:49:36;;;;;;;10.03;8.30;;;;;;;;;;6240630;28;20293;-65
2023/03/24 09:52:39;;;;;;;10.43;8.77;;;;;;;;;;6247446;28;20245;-65
2023/03/24 09:55:41;;;;;;;11.23;8.57;;;;;;;;;;6246917;28;20188;-65
2023/03/24 09:58:45;;;;;;;12.17;10.80;;;;;;;;;;6223007;28;20199;-64
2023/03/24 10:01:47;;;;;;;15.07;10.90;;;;;;;;;;6239435;28;20214;-65
2023/03/24 10:04:48;;;;;;;13.73;10.90;;;;;;;;;;6233416;28;20202;-65
2023/03/24 10:07:56;;;;;;;13.30;10.83;;;;;;;;;;6241163;28;20215;-65
2023/03/24 10:11:01;;;;;;;12.93;11.73;;;;;;;;;;6236461;28;20267;-65
2023/03/24 10:14:02;;;;;;;18.43;11.70;;;;;;;;;;6245901;28;20188;-65
2023/03/24 10:17:18;;;;;;;14.57;11.30;;;;;;;;;;6245420;28;20205;-64
2023/03/24 10:20:39;;;;;;;17.30;12.07;;;;;;;;;;6246116;28;20196;-65
2023/03/24 10:23:59;;;;;;;12.90;11.57;;;;;;;;;;6247271;28;20190;-65
2023/03/24 10:27:05;;;;;;;13.13;11.77;;;;;;;;;;6249579;28;20219;-65
2023/03/24 10:30:13;;;;;;;15.17;11.73;;;;;;;;;;6243644;28;20194;-65
2023/03/24 10:33:14;;;;;;;13.70;12.30;;;;;;;;;;6235970;28;20196;-65
2023/03/24 10:36:19;;;;;;;14.00;12.03;;;;;;;;;;6249358;28;20190;-65
2023/03/24 10:39:20;;;;;;;17.77;12.17;;;;;;;;;;6243462;28;20333;-65
2023/03/24 10:42:24;;;;;;;13.47;11.30;;;;;;;;;;6226014;28;20201;-65
2023/03/24 10:45:28;;;;;;;14.60;12.53;;;;;;;;;;6256101;28;20192;-65
2023/03/24 10:48:46;;;;;;;15.73;10.97;;;;;;;;;;6238247;28;20353;-65
2023/03/24 10:51:49;;;;;;;11.80;10.60;;;;;;;;;;6238723;28;20192;-65
2023/03/24 10:55:13;;;;;;;15.83;11.43;;;;;;;;;;6256517;28;20183;-66
2023/03/24 10:58:40;;;;;;;11.57;10.37;;;;;;;;;;6268864;28;20210;-65
2023/03/24 11:01:41;;;;;;;14.03;11.37;;;;;;;;;;6240288;28;20207;-65
2023/03/24 11:05:04;;;;;;;15.23;10.93;;;;;;;;;;6228805;28;20200;-65
2023/03/24 11:08:11;;;;;;;13.97;10.57;;;;;;;;;;6239080;28;20215;-65
2023/03/24 11:11:13;;;;;;;14.13;10.53;;;;;;;;;;6242507;28;20183;-65
2023/03/24 11:14:25;;;;;;;11.40;9.87;;;;;;;;;;6245759;28;20278;-65
2023/03/24 11:17:26;;;;;;;11.63;9.77;;;;;;;;;;6279085;28;20279;-65
2023/03/24 11:20:30;;;;;;;11.07;9.97;;;;;;;;;;6241496;28;20226;-65
2023/03/24 11:23:34;;;;;;;13.77;9.60;;;;;;;;;;6231763;28;20324;-65
2023/03/24 11:26:37;;;;;;;12.20;9.67;;;;;;;;;;6245051;28;20214;-65
2023/03/24 11:29:39;;;;;;;13.40;11.33;;;;;;;;;;6255801;28;20259;-65
2023/03/24 11:32:45;;;;;;;12.87;10.90;;;;;;;;;;6239849;28;20227;-66
2023/03/24 11:35:46;;;;;;;12.57;9.63;;;;;;;;;;6240866;28;20207;-65
2023/03/24 11:38:58;;;;;;;11.17;9.47;;;;;;;;;;6244998;28;20208;-65
2023/03/24 11:42:05;;;;;;;14.73;9.53;;;;;;;;;;6241585;28;20265;-65
2023/03/24 11:45:20;;;;;;;15.10;10.13;;;;;;;;;;6257039;28;20198;-65
2023/03/24 11:48:25;;;;;;;13.03;11.00;;;;;;;;;;6271007;28;20215;-65
2023/03/24 11:51:35;;;;;;;11.83;10.00;;;;;;;;;;6249636;28;20191;-65
2023/03/24 11:54:36;;;;;;;10.60;9.43;;;;;;;;;;6249381;28;20186;-64
2023/03/24 11:57:55;;;;;;;12.83;9.80;;;;;;;;;;6231515;28;20198;-66
2023/03/24 12:01:11;;;;;;;12.20;9.23;;;;;;;;;;6246209;28;20298;-65
2023/03/24 12:04:19;;;;;;;13.07;9.33;;;;;;;;;;6242367;28;20215;-65
2023/03/24 12:07:23;;;;;;;13.77;9.10;;;;;;;;;;6234542;28;20227;-64
2023/03/24 12:10:37;;;;;;;16.07;10.00;;;;;;;;;;6235938;28;20191;-65
2023/03/24 12:13:42;;;;;;;9.80;8.67;;;;;;;;;;6250467;28;20186;-64
2023/03/24 12:16:50;;;;;;;14.43;9.33;;;;;;;;;;6261166;28;20190;-62
2023/03/24 12:20:10;;;;;;;14.67;9.30;;;;;;;;;;6251001;28;20233;-62
2023/03/24 12:23:23;;;;;;;13.57;9.70;;;;;;;;;;6241163;28;20191;-61
2023/03/24 12:26:24;;;;;;;15.73;9.50;;;;;;;;;;6251293;28;20195;-63
2023/03/24 12:29:40;;;;;;;10.40;8.70;;;;;;;;;;6238120;28;20188;-63
2023/03/24 12:32:53;;;;;;;12.97;8.40;;;;;;;;;;6233134;28;20235;-66
2023/03/24 12:35:54;;;;;;;11.10;8.37;;;;;;;;;;6252661;28;20192;-64
2023/03/24 12:38:55;;;;;;;14.73;8.77;;;;;;;;;;6276061;28;20194;-65
2023/03/24 12:42:16;;;;;;;11.27;7.97;;;;;;;;;;6250877;28;20202;-65
2023/03/24 12:45:26;;;;;;;9.80;8.30;;;;;;;;;;6236104;28;20195;-65
2023/03/24 12:48:40;;;;;;;9.40;8.37;;;;;;;;;;6249076;28;20219;-65
2023/03/24 12:51:41;;;;;;;12.97;8.67;;;;;;;;;;6253984;28;20183;-65
2023/03/24 12:54:44;;;;;;;12.40;8.20;;;;;;;;;;6251997;28;20182;-63
2023/03/24 12:57:51;;;;;;;12.53;8.20;;;;;;;;;;6239416;28;20214;-64
2023/03/24 13:01:09;;;;;;;11.13;9.20;;;;;;;;;;6239018;28;20285;-66
2023/03/24 13:04:15;;;;;;;9.67;8.63;;;;;;;;;;6246045;28;20183;-65
2023/03/24 13:07:20;;;;;;;9.27;8.33;;;;;;;;;;6244994;28;20256;-66
2023/03/24 13:10:24;;;;;;;8.97;8.07;;;;;;;;;;6236518;28;20282;-65
2023/03/24 13:13:31;;;;;;;10.10;7.70;;;;;;;;;;6235455;28;20249;-65
2023/03/24 13:16:34;;;;;;;12.37;7.57;;;;;;;;;;6242680;28;20206;-65
2023/03/24 13:19:36;;;;;;;8.97;6.90;;;;;;;;;;6250550;28;20213;-66
2023/03/24 13:22:37;;;;;;;8.37;7.50;;;;;;;;;;6246160;28;20190;-66
2023/03/24 13:25:41;;;;;;;8.80;7.90;;;;;;;;;;6240601;28;20190;-65
2023/03/24 13:29:09;;;;;;;8.23;7.00;;;;;;;;;;6258810;28;20214;-65
2023/03/24 13:32:19;;;;;;;10.93;7.07;;;;;;;;;;6215463;28;20234;-64
2023/03/24 13:35:26;;;;;;;6.77;5.80;;;;;;;;;;6258574;28;20290;-65
2023/03/24 13:38:43;;;;;;;7.00;6.40;;;;;;;;;;6260415;28;20210;-66
2023/03/24 13:41:52;;;;;;;12.03;7.50;;;;;;;;;;6248589;28;20337;-66
2023/03/24 13:44:53;;;;;;;7.13;6.53;;;;;;;;;;6255962;28;20182;-65
2023/03/24 13:48:05;;;;;;;9.27;6.53;;;;;;;;;;6236984;28;20207;-66
2023/03/24 13:51:06;;;;;;;7.00;6.27;;;;;;;;;;6244763;28;20190;-66
2023/03/24 13:54:16;;;;;;;10.67;7.27;;;;;;;;;;6254031;28;20191;-65
2023/03/24 13:57:19;;;;;;;9.90;7.50;;;;;;;;;;6246262;28;20192;-66
2023/03/24 14:00:22;;;;;;;8.40;7.60;;;;;;;;;;6238928;28;20195;-65
2023/03/24 14:03:33;;;;;;;8.13;7.40;;;;;;;;;;6250594;28;20249;-66
2023/03/24 14:06:45;;;;;;;10.37;7.30;;;;;;;;;;6261931;28;20190;-66
2023/03/24 14:10:21;;;;;;;9.93;6.83;;;;;;;;;;6244715;28;20202;-63
2023/03/24 14:13:23;;;;;;;9.63;7.03;;;;;;;;;;6173852;28;20246;-62
2023/03/24 14:16:30;;;;;;;12.93;7.27;;;;;;;;;;6254497;28;20192;-63
2023/03/24 14:19:37;;;;;;;5.97;5.37;;;;;;;;;;6235980;28;20187;-57
2023/03/24 14:22:47;;;;;;;6.93;5.10;;;;;;;;;;6244876;28;20233;-58
2023/03/24 14:25:55;;;;;;;8.70;7.60;;;;;;;;;;6244136;28;20187;-58
2023/03/24 14:28:57;;;;;;;7.40;6.70;;;;;;;;;;6242308;28;20230;-57
2023/03/24 14:32:01;;;;;;;9.00;6.83;;;;;;;;;;6233907;28;20238;-57
2023/03/24 14:35:03;;;;;;;6.03;5.40;;;;;;;;;;6260089;28;20213;-58
2023/03/24 14:38:07;;;;;;;8.97;7.23;;;;;;;;;;6261682;28;20208;-58
2023/03/24 14:41:12;;;;;;;5.13;4.63;;;;;;;;;;6241559;28;20233;-58
2023/03/24 14:44:13;;;;;;;5.43;4.93;;;;;;;;;;6232711;28;20191;-58
2023/03/24 14:47:16;;;;;;;4.73;4.33;;;;;;;;;;6235634;28;20217;-58
2023/03/24 14:50:18;;;;;;;5.70;4.83;;;;;;;;;;6246019;28;20205;-58
2023/03/24 14:53:19;;;;;;;10.03;7.60;;;;;;;;;;6260918;28;20222;-58
2023/03/24 14:56:22;;;;;;;6.20;5.20;;;;;;;;;;6223352;28;20191;-57
2023/03/24 14:59:23;;;;;;;7.67;5.53;;;;;;;;;;6258890;28;20262;-57
2023/03/24 15:02:24;;;;;;;7.47;6.77;;;;;;;;;;6238698;28;20258;-57
2023/03/24 15:05:31;;;;;;;4.53;4.13;;;;;;;;;;6232494;28;20277;-58
2023/03/24 15:08:32;;;;;;;4.90;3.90;;;;;;;;;;6238425;28;20265;-58
2023/03/24 15:11:34;;;;;;;9.47;7.00;;;;;;;;;;6225385;28;20201;-57
2023/03/24 15:14:37;;;;;;;8.70;7.50;;;;;;;;;;6236688;28;20183;-57
2023/03/24 15:17:38;;;;;;;7.90;6.57;;;;;;;;;;6221296;28;20198;-58
2023/03/24 15:20:39;;;;;;;8.20;6.77;;;;;;;;;;6218350;28;20189;-58
2023/03/24 15:23:40;;;;;;;7.93;6.37;;;;;;;;;;6250545;28;20189;-58
2023/03/24 15:26:41;;;;;;;9.47;7.07;;;;;;;;;;6249840;28;20216;-58
2023/03/24 15:29:43;;;;;;;8.67;6.93;;;;;;;;;;6244479;28;20186;-58
2023/03/24 15:32:45;;;;;;;7.27;6.67;;;;;;;;;;6244827;28;20235;-58
2023/03/24 15:35:46;;;;;;;7.57;6.33;;;;;;;;;;6240669;28;20307;-58
2023/03/24 15:38:50;;;;;;;5.83;5.30;;;;;;;;;;6222636;28;20305;-58
2023/03/24 15:41:51;;;;;;;8.70;6.23;;;;;;;;;;6238628;28;20281;-57
2023/03/24 15:44:53;;;;;;;7.37;6.67;;;;;;;;;;6232956;28;20283;-57
2023/03/24 15:47:55;;;;;;;8.33;6.83;;;;;;;;;;6234313;28;20221;-57
2023/03/24 15:50:58;;;;;;;4.47;4.07;;;;;;;;;;6249810;28;20214;-57
2023/03/24 15:53:59;;;;;;;8.33;6.43;;;;;;;;;;6243719;28;20254;-57
2023/03/24 15:57:02;;;;;;;7.20;6.43;;;;;;;;;;6264322;28;20202;-56
2023/03/24 16:00:14;;;;;;;8.10;6.87;;;;;;;;;;6246931;28;20201;-57
2023/03/24 16:03:16;;;;;;;4.30;3.87;;;;;;;;;;6240742;28;20209;-57
2023/03/24 16:06:25;;;;;;;8.90;6.77;;;;;;;;;;6230990;28;20214;-57
2023/03/24 16:09:35;;;;;;;5.10;4.60;;;;;;;;;;6259000;28;20187;-57
2023/03/24 16:12:37;;;;;;;4.33;3.93;;;;;;;;;;6237596;28;20178;-57
2023/03/24 16:15:39;;;;;;;7.00;6.30;;;;;;;;;;6255514;28;20193;-57
2023/03/24 16:18:41;;;;;;;8.60;6.77;;;;;;;;;;6249172;28;20187;-58
2023/03/24 16:21:43;;;;;;;7.00;6.23;;;;;;;;;;6249134;28;20254;-57
2023/03/24 16:24:44;;;;;;;6.10;5.60;;;;;;;;;;6226376;28;20261;-58
2023/03/24 16:27:45;;;;;;;6.97;4.20;;;;;;;;;;6228189;28;20214;-57
2023/03/24 16:30:49;;;;;;;3.83;3.43;;;;;;;;;;6233038;28;20222;-58
2023/03/24 16:33:51;;;;;;;3.67;3.30;;;;;;;;;;6278723;28;20179;-57
2023/03/24 16:36:53;;;;;;;5.13;4.63;;;;;;;;;;6266007;28;20198;-57
2023/03/24 16:39:54;;;;;;;3.13;2.87;;;;;;;;;;6264944;28;20282;-58
2023/03/24 16:42:55;;;;;;;4.67;4.07;;;;;;;;;;6233177;28;20186;-56
2023/03/24 16:45:56;;;;;;;10.37;6.27;;;;;;;;;;6233976;28;20197;-57
2023/03/24 16:48:57;;;;;;;8.90;7.00;;;;;;;;;;6221446;28;20308;-57
2023/03/24 16:51:59;;;;;;;6.23;5.17;;;;;;;;;;6258588;28;20218;-57
2023/03/24 16:55:00;;;;;;;7.40;5.70;;;;;;;;;;6229350;28;20194;-56
2023/03/24 16:58:01;;;;;;;6.40;5.20;;;;;;;;;;6265654;28;20267;-57
2023/03/24 17:01:03;;;;;;;4.70;4.07;;;;;;;;;;6248704;28;20224;-57
2023/03/24 17:04:10;;;;;;;5.67;5.07;;;;;;;;;;6264620;28;20194;-57
2023/03/24 17:07:11;;;;;;;4.13;3.73;;;;;;;;;;6246098;28;20215;-57
2023/03/24 17:10:13;;;;;;;7.30;5.23;;;;;;;;;;6228100;28;20198;-57
2023/03/24 17:13:16;;;;;;;4.20;3.80;;;;;;;;;;6239939;28;20190;-57
2023/03/24 17:16:17;;;;;;;4.83;4.33;;;;;;;;;;6250621;28;20270;-57
2023/03/24 17:19:20;;;;;;;3.10;2.90;;;;;;;;;;6222986;28;20190;-57
2023/03/24 17:22:21;;;;;;;6.70;4.90;;;;;;;;;;6241055;28;20201;-57
2023/03/24 17:25:23;;;;;;;4.70;4.17;;;;;;;;;;6232263;28;20222;-56
2023/03/24 17:28:24;;;;;;;4.00;3.60;;;;;;;;;;6250419;28;20305;-56
2023/03/24 17:31:26;;;;;;;5.47;4.50;;;;;;;;;;6265204;28;20235;-56
2023/03/24 17:34:27;;;;;;;4.07;3.77;;;;;;;;;;6260292;28;20257;-56
2023/03/24 17:37:28;;;;;;;5.50;5.00;;;;;;;;;;6266607;28;20314;-55
2023/03/24 17:40:29;;;;;;;6.73;5.60;;;;;;;;;;6247965;28;20187;-56
2023/03/24 17:43:32;;;;;;;6.17;5.63;;;;;;;;;;6237880;28;20230;-56
2023/03/24 17:46:33;;;;;;;8.73;7.90;;;;;;;;;;6249553;28;20233;-57
2023/03/24 17:49:34;;;;;;;7.10;6.47;;;;;;;;;;6265347;28;20204;-56
2023/03/24 17:52:36;;;;;;;8.90;7.27;;;;;;;;;;6250014;28;20217;-57
2023/03/24 17:55:37;;;;;;;7.23;6.07;;;;;;;;;;6234636;28;20195;-57
2023/03/24 17:58:40;;;;;;;9.40;6.70;;;;;;;;;;6262021;28;20288;-57
2023/03/24 18:01:41;;;;;;;5.60;5.10;;;;;;;;;;6265479;28;20195;-59
2023/03/24 18:04:43;;;;;;;6.53;5.83;;;;;;;;;;6223407;28;20199;-59
2023/03/24 18:07:44;;;;;;;5.83;5.27;;;;;;;;;;6241575;28;20222;-59
2023/03/24 18:10:45;;;;;;;5.57;5.07;;;;;;;;;;6263397;28;20248;-59